createdAt,value
2023-02-15T00:01:33.531Z,1.30
2023-02-15T00:04:02.261Z,1.30
2023-02-15T00:06:31.012Z,1.30
2023-02-15T00:09:01.063Z,1.20
2023-02-15T00:11:41.767Z,1.20
2023-02-15T00:14:11.997Z,1.20
2023-02-15T00:16:43.573Z,1.30
2023-02-15T00:19:15.106Z,1.30
2023-02-15T00:21:44.149Z,1.20
2023-02-15T00:24:14.836Z,1.20
2023-02-15T00:26:44.416Z,1.20
2023-02-15T00:29:14.102Z,1.20
2023-02-15T00:31:44.500Z,1.20
2023-02-15T00:34:15.148Z,1.20
2023-02-15T00:36:44.159Z,1.20
2023-02-15T00:39:13.466Z,1.20
2023-02-15T00:41:42.533Z,1.10
2023-02-15T00:44:11.345Z,1.10
2023-02-15T00:46:40.432Z,1.00
2023-02-15T00:49:11.302Z,1.00
2023-02-15T00:51:40.510Z,1.00
2023-02-15T00:54:09.421Z,0.90
2023-02-15T00:56:38.155Z,0.70
2023-02-15T00:59:07.723Z,0.70
2023-02-15T01:01:37.074Z,0.80
2023-02-15T01:04:05.962Z,0.80
2023-02-15T01:06:36.069Z,0.70
2023-02-15T01:09:04.926Z,0.80
2023-02-15T01:11:33.818Z,0.80
2023-02-15T01:14:04.206Z,0.80
2023-02-15T01:16:35.088Z,0.90
2023-02-15T01:19:04.790Z,0.80
2023-02-15T01:21:35.516Z,0.70
2023-02-15T01:24:06.070Z,0.70
2023-02-15T01:26:34.809Z,0.60
2023-02-15T01:29:03.583Z,0.50
2023-02-15T01:31:32.380Z,0.50
2023-02-15T01:34:01.160Z,0.50
2023-02-15T01:36:29.785Z,0.50
2023-02-15T01:38:58.488Z,0.50
2023-02-15T01:41:28.746Z,0.50
2023-02-15T01:43:59.354Z,0.50
2023-02-15T01:46:33.047Z,0.50
2023-02-15T01:49:12.817Z,0.50
2023-02-15T01:51:43.389Z,0.60
2023-02-15T01:54:20.818Z,0.60
2023-02-15T01:56:51.571Z,0.60
2023-02-15T01:59:23.851Z,0.60
2023-02-15T02:01:54.636Z,0.60
2023-02-15T02:04:31.961Z,0.60
2023-02-15T02:07:02.237Z,0.60
2023-02-15T02:09:31.903Z,0.60
2023-02-15T02:12:03.001Z,0.60
2023-02-15T02:14:32.148Z,0.50
2023-02-15T02:17:10.288Z,0.50
2023-02-15T02:20:17.666Z,0.40
2023-02-15T02:23:18.997Z,0.30
2023-02-15T02:26:10.333Z,0.40
2023-02-15T02:29:10.879Z,0.40
2023-02-15T02:32:02.122Z,0.20
2023-02-15T02:34:36.465Z,0.30
2023-02-15T02:37:14.546Z,0.30
2023-02-15T02:39:52.091Z,0.30
2023-02-15T02:42:31.490Z,0.30
2023-02-15T02:45:05.795Z,0.30
2023-02-15T02:47:40.085Z,0.00
2023-02-15T02:50:14.471Z,-0.10
2023-02-15T02:52:45.617Z,-0.10
2023-02-15T02:55:18.886Z,0.00
2023-02-15T02:57:55.714Z,0.10
2023-02-15T03:00:28.059Z,0.20
2023-02-15T03:03:06.404Z,0.20
2023-02-15T03:05:40.659Z,0.00
2023-02-15T03:08:11.051Z,0.00
2023-02-15T03:10:41.220Z,0.00
2023-02-15T03:13:11.016Z,0.10
2023-02-15T03:15:59.984Z,0.10
2023-02-15T03:18:36.848Z,0.10
2023-02-15T03:21:09.784Z,0.10
2023-02-15T03:23:40.226Z,0.10
2023-02-15T03:26:12.164Z,0.00
2023-02-15T03:28:44.413Z,0.00
2023-02-15T03:31:15.827Z,0.00
2023-02-15T03:33:49.982Z,0.00
2023-02-15T03:36:24.996Z,0.00
2023-02-15T03:39:00.898Z,-0.10
2023-02-15T03:41:33.707Z,-0.10
2023-02-15T03:44:07.445Z,-0.10
2023-02-15T03:46:45.082Z,-0.10
2023-02-15T03:49:20.049Z,-0.10
2023-02-15T03:51:52.617Z,-0.20
2023-02-15T03:54:46.993Z,-0.10
2023-02-15T03:57:36.699Z,0.00
2023-02-15T04:00:28.726Z,-0.10
2023-02-15T04:03:19.717Z,-0.10
2023-02-15T04:05:50.480Z,-0.10
2023-02-15T04:08:21.677Z,-0.10
2023-02-15T04:10:56.077Z,-0.10
2023-02-15T04:13:26.478Z,-0.10
2023-02-15T04:16:04.617Z,-0.10
2023-02-15T04:18:52.817Z,-0.10
2023-02-15T04:21:41.060Z,-0.10
2023-02-15T04:24:29.406Z,-0.10
2023-02-15T04:26:58.416Z,-0.20
2023-02-15T04:29:28.238Z,-0.40
2023-02-15T04:31:59.989Z,-0.40
2023-02-15T04:34:28.784Z,-0.30
2023-02-15T04:36:57.438Z,-0.40
2023-02-15T04:39:27.486Z,-0.60
2023-02-15T04:41:56.470Z,-0.70
2023-02-15T04:44:25.179Z,-0.50
2023-02-15T04:46:53.828Z,-0.40
2023-02-15T04:49:22.492Z,-0.40
2023-02-15T04:51:51.148Z,-0.40
2023-02-15T04:54:19.976Z,-0.30
2023-02-15T04:56:50.310Z,-0.30
2023-02-15T04:59:19.612Z,-0.40
2023-02-15T05:01:48.296Z,-0.60
2023-02-15T05:04:17.409Z,-0.70
2023-02-15T05:06:46.286Z,-0.60
2023-02-15T05:09:15.756Z,-0.60
2023-02-15T05:11:44.562Z,-0.60
2023-02-15T05:14:14.898Z,-0.70
2023-02-15T05:16:43.634Z,-0.60
2023-02-15T05:19:12.856Z,-0.50
2023-02-15T05:21:41.560Z,-0.50
2023-02-15T05:24:24.024Z,-0.50
2023-02-15T05:27:11.384Z,-0.50
2023-02-15T05:29:41.673Z,-0.40
2023-02-15T05:32:10.579Z,-0.50
2023-02-15T05:34:39.428Z,-0.50
2023-02-15T05:37:08.624Z,-0.50
2023-02-15T05:39:37.323Z,-0.50
2023-02-15T05:42:08.387Z,-0.50
2023-02-15T05:44:37.059Z,-0.50
2023-02-15T05:47:08.698Z,-0.60
2023-02-15T05:49:37.350Z,-0.70
2023-02-15T05:52:06.424Z,-0.70
2023-02-15T05:54:35.171Z,-0.70
2023-02-15T05:57:03.883Z,-0.70
2023-02-15T05:59:32.605Z,-0.60
2023-02-15T06:02:01.636Z,-0.80
2023-02-15T06:04:32.156Z,-0.80
2023-02-15T06:07:01.047Z,-0.90
2023-02-15T06:09:30.142Z,-1.00
2023-02-15T06:11:58.847Z,-1.00
2023-02-15T06:14:27.717Z,-1.00
2023-02-15T06:16:56.433Z,-1.00
2023-02-15T06:19:25.067Z,-0.90
2023-02-15T06:21:55.087Z,-1.00
2023-02-15T06:24:23.776Z,-1.10
2023-02-15T06:26:52.424Z,-1.10
2023-02-15T06:29:21.017Z,-1.10
2023-02-15T06:31:50.242Z,-0.90
2023-02-15T06:34:19.130Z,-0.80
2023-02-15T06:36:51.006Z,-0.80
2023-02-15T06:39:21.042Z,-0.70
2023-02-15T06:41:49.820Z,-0.80
2023-02-15T06:44:18.609Z,-0.70
2023-02-15T06:46:47.557Z,-0.80
2023-02-15T06:49:16.176Z,-0.90
2023-02-15T06:51:44.913Z,-0.90
2023-02-15T06:54:13.521Z,-0.90
2023-02-15T06:56:44.577Z,-1.00
2023-02-15T06:59:13.357Z,-0.90
2023-02-15T07:01:42.034Z,-0.80
2023-02-15T07:04:10.646Z,-0.80
2023-02-15T07:06:39.372Z,-0.70
2023-02-15T07:09:07.990Z,-0.70
2023-02-15T07:11:54.367Z,-0.70
2023-02-15T07:14:24.615Z,-0.60
2023-02-15T07:16:53.424Z,-0.60
2023-02-15T07:19:22.842Z,-0.50
2023-02-15T07:21:51.481Z,-0.30
2023-02-15T07:24:22.787Z,-0.30
2023-02-15T07:26:51.525Z,-0.30
2023-02-15T07:29:20.897Z,-0.30
2023-02-15T07:31:50.985Z,-0.30
2023-02-15T07:34:19.880Z,-0.30
2023-02-15T07:36:48.747Z,-0.40
2023-02-15T07:39:17.496Z,-0.30
2023-02-15T07:41:46.087Z,-0.20
2023-02-15T07:44:15.509Z,-0.10
2023-02-15T07:46:44.220Z,0.00
2023-02-15T07:49:14.236Z,0.00
2023-02-15T07:51:43.031Z,0.00
2023-02-15T07:54:11.668Z,0.10
2023-02-15T07:56:40.381Z,0.20
2023-02-15T07:59:10.046Z,0.30
2023-02-15T08:01:40.801Z,0.40
2023-02-15T08:04:12.075Z,0.40
2023-02-15T08:06:42.179Z,0.50
2023-02-15T08:09:11.827Z,0.60
2023-02-15T08:11:41.939Z,0.70
2023-02-15T08:14:12.612Z,0.70
2023-02-15T08:16:42.959Z,0.80
2023-02-15T08:19:13.470Z,0.90
2023-02-15T08:21:45.823Z,0.90
2023-02-15T08:24:16.366Z,1.00
2023-02-15T08:26:46.210Z,1.10
2023-02-15T08:29:16.377Z,1.10
2023-02-15T08:31:45.474Z,1.30
2023-02-15T08:34:17.747Z,1.40
2023-02-15T08:36:48.207Z,1.50
2023-02-15T08:39:17.866Z,1.50
2023-02-15T08:41:47.580Z,1.60
2023-02-15T08:44:18.389Z,1.70
2023-02-15T08:46:48.694Z,1.80
2023-02-15T08:49:20.123Z,1.90
2023-02-15T08:51:51.162Z,2.00
2023-02-15T08:54:22.844Z,2.10
2023-02-15T08:56:51.872Z,2.20
2023-02-15T08:59:22.757Z,2.30
2023-02-15T09:01:53.366Z,2.50
2023-02-15T09:04:23.691Z,2.60
2023-02-15T09:06:54.290Z,2.70
2023-02-15T09:09:23.816Z,2.90
2023-02-15T09:11:58.793Z,3.10
2023-02-15T09:14:28.793Z,3.20
2023-02-15T09:16:57.815Z,3.40
2023-02-15T09:19:26.931Z,3.50
2023-02-15T09:21:56.943Z,3.60
2023-02-15T09:24:25.622Z,3.70
2023-02-15T09:26:54.178Z,3.80
2023-02-15T09:29:23.740Z,3.90
2023-02-15T09:31:54.586Z,4.00
2023-02-15T09:34:24.341Z,4.20
2023-02-15T09:36:53.520Z,4.30
2023-02-15T09:39:25.744Z,4.40
2023-02-15T09:42:30.090Z,4.50
2023-02-15T09:45:22.716Z,4.60
2023-02-15T09:48:28.736Z,4.80
2023-02-15T09:51:08.610Z,4.80
2023-02-15T09:53:56.766Z,4.90
2023-02-15T09:56:37.901Z,4.90
2023-02-15T09:59:16.067Z,5.00
2023-02-15T10:01:55.752Z,5.10
2023-02-15T10:05:02.804Z,5.30
2023-02-15T10:07:57.826Z,5.40
2023-02-15T10:10:34.502Z,5.60
2023-02-15T10:13:20.922Z,5.80
2023-02-15T10:15:58.272Z,5.90
2023-02-15T10:18:42.970Z,6.00
2023-02-15T10:21:22.348Z,6.30
2023-02-15T10:24:10.635Z,6.30
2023-02-15T10:26:45.171Z,6.40
2023-02-15T10:29:27.898Z,6.60
2023-02-15T10:32:05.878Z,6.60
2023-02-15T10:34:40.282Z,6.80
2023-02-15T10:37:26.234Z,7.00
2023-02-15T10:40:04.305Z,7.10
2023-02-15T10:42:44.448Z,7.30
2023-02-15T10:45:26.078Z,7.40
2023-02-15T10:48:12.908Z,7.50
2023-02-15T10:50:51.626Z,7.70
2023-02-15T10:53:41.590Z,7.80
2023-02-15T10:56:21.468Z,8.00
2023-02-15T10:59:01.440Z,8.20
2023-02-15T11:01:36.982Z,8.40
2023-02-15T11:04:29.723Z,8.70
2023-02-15T11:07:02.110Z,8.90
2023-02-15T11:09:41.173Z,9.10
2023-02-15T11:12:13.830Z,9.30
2023-02-15T11:14:49.072Z,9.50
2023-02-15T11:17:24.182Z,9.70
2023-02-15T11:19:59.323Z,9.80
2023-02-15T11:22:28.231Z,9.90
2023-02-15T11:24:58.607Z,10.00
2023-02-15T11:27:31.536Z,10.00
2023-02-15T11:30:04.634Z,10.20
2023-02-15T11:32:37.720Z,10.30
2023-02-15T11:35:13.807Z,10.50
2023-02-15T11:37:48.061Z,10.70
2023-02-15T11:40:26.722Z,10.90
2023-02-15T11:42:58.473Z,11.00
2023-02-15T11:45:30.464Z,11.20
2023-02-15T11:48:01.520Z,11.50
2023-02-15T11:50:33.192Z,11.70
2023-02-15T11:53:05.263Z,11.80
2023-02-15T11:55:36.114Z,11.90
2023-02-15T11:58:09.763Z,11.90
2023-02-15T12:00:43.532Z,12.00
2023-02-15T12:03:17.211Z,12.00
2023-02-15T12:05:49.930Z,11.90
2023-02-15T12:08:21.177Z,11.80
2023-02-15T12:11:00.870Z,11.80
2023-02-15T12:13:31.086Z,11.70
2023-02-15T12:16:06.886Z,11.80
2023-02-15T12:18:42.555Z,12.00
2023-02-15T12:21:16.353Z,12.20
2023-02-15T12:23:50.343Z,12.40
2023-02-15T12:26:27.104Z,12.50
2023-02-15T12:28:58.996Z,12.50
2023-02-15T12:31:33.935Z,12.70
2023-02-15T12:34:13.964Z,12.70
2023-02-15T12:36:46.785Z,12.70
2023-02-15T12:39:26.651Z,12.90
2023-02-15T12:42:08.418Z,13.10
2023-02-15T12:44:38.514Z,13.30
2023-02-15T12:47:08.590Z,13.40
2023-02-15T12:49:39.418Z,13.40
2023-02-15T12:52:24.721Z,13.40
2023-02-15T12:54:53.621Z,13.30
2023-02-15T12:57:28.062Z,13.40
2023-02-15T12:59:59.248Z,13.50
2023-02-15T13:02:31.910Z,13.70
2023-02-15T13:05:17.489Z,13.80
2023-02-15T13:07:51.427Z,14.00
2023-02-15T13:10:29.325Z,14.00
2023-02-15T13:12:59.008Z,14.10
2023-02-15T13:15:33.105Z,14.10
2023-02-15T13:18:02.560Z,14.10
2023-02-15T13:20:34.364Z,14.10
2023-02-15T13:23:06.304Z,14.10
2023-02-15T13:25:42.588Z,14.00
2023-02-15T13:28:16.699Z,13.80
2023-02-15T13:30:48.822Z,13.80
2023-02-15T13:33:29.459Z,13.70
2023-02-15T13:36:08.729Z,13.60
2023-02-15T13:38:53.886Z,13.40
2023-02-15T13:41:28.565Z,13.30
2023-02-15T13:44:06.248Z,13.20
2023-02-15T13:46:55.807Z,13.10
2023-02-15T13:49:39.826Z,13.20
2023-02-15T13:52:20.662Z,13.20
2023-02-15T13:55:04.552Z,13.20
2023-02-15T13:58:08.122Z,13.20
2023-02-15T14:00:45.579Z,13.10
2023-02-15T14:04:03.429Z,13.20
2023-02-15T14:06:49.754Z,13.40
2023-02-15T14:09:33.058Z,13.50
2023-02-15T14:12:20.802Z,13.50
2023-02-15T14:15:08.945Z,13.40
2023-02-15T14:17:49.182Z,13.40
2023-02-15T14:20:26.137Z,13.40
2023-02-15T14:23:06.928Z,13.40
2023-02-15T14:25:43.489Z,13.40
2023-02-15T14:28:15.560Z,13.40
2023-02-15T14:30:49.183Z,13.40
2023-02-15T14:33:34.960Z,13.30
2023-02-15T14:36:07.273Z,13.20
2023-02-15T14:38:50.934Z,13.10
2023-02-15T14:41:27.305Z,13.00
2023-02-15T14:44:03.557Z,13.00
2023-02-15T14:46:38.711Z,12.80
2023-02-15T14:49:13.041Z,12.70
2023-02-15T14:52:06.282Z,12.60
2023-02-15T14:55:00.744Z,12.60
2023-02-15T14:57:36.423Z,12.50
2023-02-15T15:00:35.714Z,12.40
2023-02-15T15:03:12.234Z,12.30
2023-02-15T15:05:53.557Z,12.20
2023-02-15T15:08:33.846Z,12.10
2023-02-15T15:11:43.441Z,12.00
2023-02-15T15:14:43.144Z,12.00
2023-02-15T15:17:37.654Z,11.90
2023-02-15T15:20:14.640Z,11.90
2023-02-15T15:22:44.716Z,11.80
2023-02-15T15:25:45.806Z,11.70
2023-02-15T15:28:53.029Z,11.50
2023-02-15T15:31:27.222Z,11.50
2023-02-15T15:34:21.756Z,11.40
2023-02-15T15:37:45.587Z,11.20
2023-02-15T15:40:38.551Z,11.10
2023-02-15T15:44:03.120Z,11.00
2023-02-15T15:46:59.586Z,10.90
2023-02-15T15:49:32.583Z,10.80
2023-02-15T15:52:04.069Z,10.70
2023-02-15T15:54:32.899Z,10.70
2023-02-15T15:57:04.934Z,10.60
2023-02-15T15:59:34.937Z,10.60
2023-02-15T16:02:08.945Z,10.50
2023-02-15T16:04:37.893Z,10.50
2023-02-15T16:07:24.941Z,10.50
2023-02-15T16:09:57.988Z,10.40
2023-02-15T16:12:28.161Z,10.30
2023-02-15T16:14:57.556Z,10.20
2023-02-15T16:17:32.648Z,10.20
2023-02-15T16:20:08.229Z,10.10
2023-02-15T16:22:37.396Z,10.00
2023-02-15T16:25:36.747Z,9.80
2023-02-15T16:28:10.338Z,9.60
2023-02-15T16:30:40.769Z,9.50
2023-02-15T16:33:12.661Z,9.40
2023-02-15T16:35:43.645Z,9.30
2023-02-15T16:38:12.790Z,9.20
2023-02-15T16:40:52.730Z,9.10
2023-02-15T16:43:28.058Z,9.00
2023-02-15T16:46:06.098Z,8.90
2023-02-15T16:48:43.720Z,8.80
2023-02-15T16:51:20.582Z,8.70
2023-02-15T16:53:49.954Z,8.70
2023-02-15T16:56:25.205Z,8.60
2023-02-15T16:58:56.736Z,8.60
2023-02-15T17:01:28.581Z,8.50
2023-02-15T17:04:14.585Z,8.50
2023-02-15T17:06:43.248Z,8.30
2023-02-15T17:09:20.573Z,8.20
2023-02-15T17:11:49.225Z,8.00
2023-02-15T17:14:28.874Z,8.00
2023-02-15T17:17:02.733Z,7.90
2023-02-15T17:19:35.006Z,7.80
2023-02-15T17:22:07.325Z,7.60
2023-02-15T17:24:39.508Z,7.50
2023-02-15T17:27:16.813Z,7.50
2023-02-15T17:29:48.904Z,7.50
2023-02-15T17:32:21.945Z,7.40
2023-02-15T17:35:01.257Z,7.40
2023-02-15T17:37:33.198Z,7.30
2023-02-15T17:40:07.653Z,7.30
2023-02-15T17:42:36.301Z,7.20
2023-02-15T17:45:05.272Z,7.10
2023-02-15T17:47:33.876Z,7.10
2023-02-15T17:50:06.651Z,7.10
2023-02-15T17:52:35.339Z,7.00
2023-02-15T17:55:31.597Z,7.00
2023-02-15T17:58:00.525Z,6.90
2023-02-15T18:00:46.500Z,6.80
2023-02-15T18:03:32.605Z,6.80
2023-02-15T18:06:20.195Z,6.60
2023-02-15T18:09:06.282Z,6.60
2023-02-15T18:11:40.819Z,6.50
2023-02-15T18:14:11.461Z,6.40
2023-02-15T18:16:43.333Z,6.40
2023-02-15T18:19:16.690Z,6.40
2023-02-15T18:21:47.134Z,6.40
2023-02-15T18:24:19.560Z,6.40
2023-02-15T18:26:48.293Z,6.30
2023-02-15T18:29:17.222Z,6.50
2023-02-15T18:31:49.124Z,6.60
2023-02-15T18:34:24.860Z,6.60
2023-02-15T18:36:55.189Z,6.50
2023-02-15T18:39:37.038Z,6.40
2023-02-15T18:42:06.196Z,6.30
2023-02-15T18:44:34.913Z,6.20
2023-02-15T18:47:03.463Z,6.10
2023-02-15T18:49:32.185Z,6.00
2023-02-15T18:52:02.874Z,6.00
2023-02-15T18:54:31.765Z,5.90
2023-02-15T18:57:02.651Z,6.00
2023-02-15T18:59:32.535Z,5.90
2023-02-15T19:02:01.458Z,5.90
2023-02-15T19:04:30.170Z,5.90
2023-02-15T19:06:58.797Z,5.80
2023-02-15T19:09:29.509Z,5.80
2023-02-15T19:11:59.776Z,5.80
2023-02-15T19:14:30.892Z,5.80
2023-02-15T19:17:01.189Z,5.70
2023-02-15T19:19:29.851Z,5.70
2023-02-15T19:21:58.539Z,5.70
2023-02-15T19:24:38.062Z,5.60
2023-02-15T19:27:08.562Z,5.60
2023-02-15T19:29:37.782Z,5.60
2023-02-15T19:32:06.673Z,5.50
2023-02-15T19:34:35.396Z,5.50
2023-02-15T19:37:04.664Z,5.50
2023-02-15T19:39:39.181Z,5.60
2023-02-15T19:42:11.494Z,5.60
2023-02-15T19:44:43.754Z,5.60
2023-02-15T19:47:14.447Z,5.50
2023-02-15T19:49:43.136Z,5.40
2023-02-15T19:52:18.713Z,5.30
2023-02-15T19:54:50.207Z,5.30
2023-02-15T19:57:19.430Z,5.40
2023-02-15T19:59:48.630Z,5.30
2023-02-15T20:02:20.245Z,5.30
2023-02-15T20:04:49.094Z,5.30
2023-02-15T20:07:23.730Z,5.30
2023-02-15T20:09:54.357Z,5.50
2023-02-15T20:12:25.261Z,5.50
2023-02-15T20:14:57.567Z,5.60
2023-02-15T20:17:26.458Z,5.60
2023-02-15T20:19:56.196Z,5.60
2023-02-15T20:22:27.464Z,5.60
2023-02-15T20:24:58.373Z,5.60
2023-02-15T20:27:27.225Z,5.60
2023-02-15T20:29:56.913Z,5.60
2023-02-15T20:32:26.083Z,5.60
2023-02-15T20:34:54.890Z,5.60
2023-02-15T20:37:26.493Z,5.50
2023-02-15T20:39:55.526Z,5.40
2023-02-15T20:42:25.579Z,5.40
2023-02-15T20:44:54.328Z,5.40
2023-02-15T20:47:23.041Z,5.40
2023-02-15T20:49:52.814Z,5.30
2023-02-15T20:52:22.274Z,5.30
2023-02-15T20:54:51.160Z,5.30
2023-02-15T20:57:20.217Z,5.30
2023-02-15T20:59:50.492Z,5.30
2023-02-15T21:02:22.994Z,5.30
2023-02-15T21:04:51.715Z,5.40
2023-02-15T21:07:22.587Z,5.40
2023-02-15T21:09:52.409Z,5.60
2023-02-15T21:12:22.178Z,5.60
2023-02-15T21:14:52.325Z,5.60
2023-02-15T21:17:21.007Z,5.70
2023-02-15T21:19:49.949Z,5.70
2023-02-15T21:22:21.540Z,5.70
2023-02-15T21:24:54.800Z,5.60
2023-02-15T21:27:23.637Z,5.50
2023-02-15T21:29:54.080Z,5.50
2023-02-15T21:32:23.042Z,5.50
2023-02-15T21:34:54.805Z,5.70
2023-02-15T21:37:33.354Z,5.90
2023-02-15T21:40:03.252Z,6.10
2023-02-15T21:42:49.542Z,6.10
2023-02-15T21:45:37.690Z,6.10
2023-02-15T21:48:06.485Z,6.10
2023-02-15T21:50:54.331Z,6.20
2023-02-15T21:53:26.425Z,6.10
2023-02-15T21:55:57.913Z,6.10
2023-02-15T21:58:29.202Z,6.10
2023-02-15T22:01:02.155Z,6.10
2023-02-15T22:03:34.856Z,6.20
2023-02-15T22:06:03.885Z,6.10
2023-02-15T22:08:32.767Z,6.10
2023-02-15T22:11:02.306Z,6.30
2023-02-15T22:13:33.264Z,6.20
2023-02-15T22:16:04.071Z,6.20
2023-02-15T22:18:34.459Z,6.10
2023-02-15T22:21:04.446Z,6.10
2023-02-15T22:23:33.549Z,6.10
2023-02-15T22:26:06.394Z,6.00
2023-02-15T22:28:37.028Z,6.00
2023-02-15T22:31:12.323Z,5.90
2023-02-15T22:33:41.606Z,5.90
2023-02-15T22:36:22.971Z,5.90
2023-02-15T22:38:51.731Z,5.90
2023-02-15T22:41:21.134Z,5.90
2023-02-15T22:43:50.542Z,5.90
2023-02-15T22:46:23.627Z,5.90
2023-02-15T22:48:53.055Z,5.80
2023-02-15T22:51:25.162Z,5.70
2023-02-15T22:53:54.411Z,5.70
2023-02-15T22:56:27.485Z,5.60
2023-02-15T22:59:01.253Z,5.60
2023-02-15T23:01:34.451Z,5.60
2023-02-15T23:04:04.421Z,5.70
2023-02-15T23:06:35.910Z,5.70
2023-02-15T23:09:05.056Z,5.70
2023-02-15T23:11:33.779Z,5.70
2023-02-15T23:14:03.916Z,5.80
2023-02-15T23:19:18.264Z,5.80
2023-02-15T23:21:47.424Z,5.90
2023-02-15T23:24:20.621Z,5.80
2023-02-15T23:26:51.186Z,5.90
2023-02-15T23:29:24.835Z,5.90
2023-02-15T23:31:56.237Z,5.90
2023-02-15T23:34:29.558Z,5.90
2023-02-15T23:37:00.244Z,5.90
2023-02-15T23:39:48.276Z,5.90
2023-02-15T23:42:20.631Z,5.80
2023-02-15T23:44:51.824Z,5.70
2023-02-15T23:47:44.213Z,5.70
2023-02-15T23:50:18.913Z,5.70
2023-02-15T23:52:47.984Z,5.70
2023-02-15T23:55:18.315Z,5.80
2023-02-15T23:57:48.058Z,5.80
